NCAR-RAP Real-Time Weather Data

Output produced by METARs form (10 April 2020  07:19 UTC)
found at http://weather.rap.ucar.edu/surface/
 
KJAX 100656Z 26006KT 8SM FEW070 SCT250 23/20 A2973 RMK AO2 SLP067 T02280200 $